createdAt,value
2023-02-12T00:01:38.004Z,98096.75
2023-02-12T00:04:11.091Z,98085.66
2023-02-12T00:06:43.946Z,98091.34
2023-02-12T00:09:16.896Z,98080.81
2023-02-12T00:11:49.844Z,98088.94
2023-02-12T00:14:24.147Z,98080.22
2023-02-12T00:16:57.041Z,98081.25
2023-02-12T00:19:30.022Z,98082.28
2023-02-12T00:22:02.898Z,98081.72
2023-02-12T00:24:35.761Z,98083.53
2023-02-12T00:27:08.666Z,98081.94
2023-02-12T00:29:43.034Z,98078.50
2023-02-12T00:32:19.489Z,98084.78
2023-02-12T00:34:52.618Z,98081.75
2023-02-12T00:37:25.601Z,98080.53
2023-02-12T00:39:58.620Z,98086.81
2023-02-12T00:42:31.749Z,98087.63
2023-02-12T00:45:06.895Z,98096.31
2023-02-12T00:47:39.783Z,98104.19
2023-02-12T00:50:13.333Z,98101.78
2023-02-12T00:52:46.169Z,98101.19
2023-02-12T00:55:19.420Z,98099.63
2023-02-12T00:57:52.309Z,98095.94
2023-02-12T01:00:26.892Z,98083.59
2023-02-12T01:02:59.759Z,98085.41
2023-02-12T01:05:33.429Z,98093.31
2023-02-12T01:08:06.728Z,98096.75
2023-02-12T01:10:39.743Z,98090.09
2023-02-12T01:13:14.970Z,98090.66
2023-02-12T01:15:49.348Z,98082.78
2023-02-12T01:18:22.271Z,98085.88
2023-02-12T01:20:55.229Z,98083.22
2023-02-12T01:23:28.572Z,98082.44
2023-02-12T01:26:01.779Z,98088.72
2023-02-12T01:28:35.168Z,98087.09
2023-02-12T01:31:14.746Z,98087.91
2023-02-12T01:33:49.587Z,98089.50
2023-02-12T01:36:23.570Z,98078.41
2023-02-12T01:38:57.946Z,98081.84
2023-02-12T01:41:32.872Z,98090.53
2023-02-12T01:44:12.253Z,98083.66
2023-02-12T01:46:48.478Z,98089.72
2023-02-12T01:49:25.681Z,98089.94
2023-02-12T01:52:03.890Z,98079.63
2023-02-12T01:54:38.105Z,98072.78
2023-02-12T01:57:15.414Z,98073.00
2023-02-12T01:59:52.545Z,98074.81
2023-02-12T02:02:26.982Z,98073.22
2023-02-12T02:05:03.316Z,98070.00
2023-02-12T02:07:36.727Z,98059.13
2023-02-12T02:10:10.854Z,98065.19
2023-02-12T02:13:00.990Z,98062.75
2023-02-12T02:15:34.468Z,98060.56
2023-02-12T02:18:12.964Z,98055.31
2023-02-12T02:21:30.045Z,98062.38
2023-02-12T02:24:36.004Z,98058.59
2023-02-12T02:27:19.463Z,98059.81
2023-02-12T02:30:33.847Z,98069.53
2023-02-12T02:33:23.503Z,98065.50
2023-02-12T02:36:07.808Z,98057.25
2023-02-12T02:38:45.724Z,98055.88
2023-02-12T02:41:26.272Z,98053.44
2023-02-12T02:44:01.241Z,98056.28
2023-02-12T02:46:38.902Z,98048.41
2023-02-12T02:49:20.720Z,98051.25
2023-02-12T02:51:56.724Z,98050.69
2023-02-12T02:54:34.750Z,98062.56
2023-02-12T02:57:12.447Z,98055.72
2023-02-12T02:59:50.542Z,98058.56
2023-02-12T03:02:29.120Z,98050.06
2023-02-12T03:05:07.525Z,98060.59
2023-02-12T03:07:45.428Z,98051.31
2023-02-12T03:10:21.992Z,98059.41
2023-02-12T03:12:59.744Z,98062.03
2023-02-12T03:15:36.966Z,98061.22
2023-02-12T03:18:13.991Z,98056.22
2023-02-12T03:20:53.160Z,98059.63
2023-02-12T03:23:30.123Z,98060.66
2023-02-12T03:26:07.812Z,98058.25
2023-02-12T03:28:41.693Z,98052.59
2023-02-12T03:31:25.723Z,98055.81
2023-02-12T03:34:10.233Z,98064.72
2023-02-12T03:36:52.747Z,98053.03
2023-02-12T03:39:32.506Z,98048.59
2023-02-12T03:42:11.990Z,98054.28
2023-02-12T03:44:51.463Z,98051.03
2023-02-12T03:47:30.607Z,98044.97
2023-02-12T03:50:10.707Z,98043.81
2023-02-12T03:52:45.681Z,98049.06
2023-02-12T03:55:19.128Z,98041.81
2023-02-12T03:57:55.575Z,98050.50
2023-02-12T04:00:29.200Z,98059.41
2023-02-12T04:03:02.276Z,98050.38
2023-02-12T04:05:35.177Z,98043.50
2023-02-12T04:08:10.946Z,98054.00
2023-02-12T04:10:54.351Z,98050.78
2023-02-12T04:13:34.602Z,98048.56
2023-02-12T04:16:21.098Z,98058.06
2023-02-12T04:18:55.326Z,98054.28
2023-02-12T04:21:44.955Z,98056.69
2023-02-12T04:24:24.578Z,98068.41
2023-02-12T04:27:05.093Z,98083.97
2023-02-12T04:29:48.360Z,98076.28
2023-02-12T04:32:29.657Z,98073.47
2023-02-12T04:35:09.192Z,98081.75
2023-02-12T04:37:45.355Z,98077.53
2023-02-12T04:40:22.940Z,98081.97
2023-02-12T04:42:56.032Z,98076.16
2023-02-12T04:45:31.907Z,98082.41
2023-02-12T04:48:05.898Z,98081.59
2023-02-12T04:50:41.621Z,98078.38
2023-02-12T04:53:15.041Z,98087.88
2023-02-12T04:55:50.749Z,98091.31
2023-02-12T04:58:23.714Z,98087.25
2023-02-12T05:01:00.229Z,98092.53
2023-02-12T05:03:33.202Z,98083.22
2023-02-12T05:06:07.315Z,98084.03
2023-02-12T05:08:40.242Z,98084.84
2023-02-12T05:11:14.763Z,98077.78
2023-02-12T05:13:50.228Z,98082.44
2023-02-12T05:16:23.786Z,98086.66
2023-02-12T05:18:56.739Z,98072.97
2023-02-12T05:21:29.672Z,98073.53
2023-02-12T05:24:02.762Z,98065.88
2023-02-12T05:26:37.376Z,98069.91
2023-02-12T05:29:10.503Z,98073.53
2023-02-12T05:31:43.533Z,98074.13
2023-02-12T05:34:16.527Z,98067.06
2023-02-12T05:36:49.410Z,98065.03
2023-02-12T05:39:22.713Z,98063.22
2023-02-12T05:41:57.109Z,98059.34
2023-02-12T05:44:30.102Z,98070.09
2023-02-12T05:47:02.993Z,98057.75
2023-02-12T05:49:35.945Z,98061.16
2023-02-12T05:52:08.932Z,98057.75
2023-02-12T05:54:41.892Z,98071.66
2023-02-12T05:57:16.563Z,98069.03
2023-02-12T05:59:49.454Z,98061.16
2023-02-12T06:02:22.307Z,98062.19
2023-02-12T06:04:55.290Z,98056.94
2023-02-12T06:07:28.301Z,98055.34
2023-02-12T06:10:01.264Z,98056.16
2023-02-12T06:12:35.573Z,98051.91
2023-02-12T06:15:09.617Z,98058.97
2023-02-12T06:17:42.452Z,98066.66
2023-02-12T06:20:15.342Z,98054.31
2023-02-12T06:22:48.683Z,98058.78
2023-02-12T06:25:21.808Z,98055.91
2023-02-12T06:27:56.143Z,98061.97
2023-02-12T06:30:29.092Z,98060.94
2023-02-12T06:33:02.325Z,98060.75
2023-02-12T06:35:36.881Z,98063.16
2023-02-12T06:38:09.855Z,98056.91
2023-02-12T06:40:43.026Z,98058.31
2023-02-12T06:43:17.252Z,98060.47
2023-02-12T06:45:50.169Z,98057.66
2023-02-12T06:48:23.186Z,98056.41
2023-02-12T06:50:56.148Z,98056.22
2023-02-12T06:53:28.985Z,98054.16
2023-02-12T06:56:02.602Z,98063.22
2023-02-12T06:58:36.923Z,98067.25
2023-02-12T07:01:13.754Z,98074.69
2023-02-12T07:03:50.309Z,98075.09
2023-02-12T07:06:24.364Z,98072.25
2023-02-12T07:08:58.391Z,98073.81
2023-02-12T07:11:36.152Z,98075.22
2023-02-12T07:14:16.533Z,98069.34
2023-02-12T07:16:49.513Z,98071.75
2023-02-12T07:19:22.927Z,98077.59
2023-02-12T07:21:55.832Z,98081.41
2023-02-12T07:24:29.016Z,98085.41
2023-02-12T07:27:02.018Z,98075.06
2023-02-12T07:29:36.412Z,98076.03
2023-02-12T07:32:09.477Z,98072.53
2023-02-12T07:34:42.416Z,98084.81
2023-02-12T07:37:15.305Z,98087.16
2023-02-12T07:39:48.237Z,98088.91
2023-02-12T07:42:21.304Z,98087.03
2023-02-12T07:44:55.609Z,98090.97
2023-02-12T07:47:28.538Z,98084.63
2023-02-12T07:50:01.413Z,98089.63
2023-02-12T07:52:34.329Z,98085.88
2023-02-12T07:55:08.159Z,98093.25
2023-02-12T07:57:41.054Z,98087.44
2023-02-12T08:00:17.309Z,98080.63
2023-02-12T08:02:54.241Z,98073.81
2023-02-12T08:05:27.240Z,98075.91
2023-02-12T08:08:00.136Z,98076.19
2023-02-12T08:10:33.097Z,98082.50
2023-02-12T08:13:06.055Z,98084.59
2023-02-12T08:15:40.430Z,98073.06
2023-02-12T08:18:13.437Z,98081.44
2023-02-12T08:20:46.273Z,98074.34
2023-02-12T08:23:19.210Z,98083.28
2023-02-12T08:25:52.093Z,98080.91
2023-02-12T08:28:25.396Z,98088.81
2023-02-12T08:31:03.864Z,98075.59
2023-02-12T08:33:36.734Z,98078.69
2023-02-12T08:36:11.694Z,98077.66
2023-02-12T08:38:45.505Z,98082.13
2023-02-12T08:41:21.748Z,98074.97
2023-02-12T08:43:56.125Z,98076.78
2023-02-12T08:46:32.275Z,98081.78
2023-02-12T08:49:07.440Z,98089.47
2023-02-12T08:51:42.825Z,98072.50
2023-02-12T08:54:17.942Z,98067.75
2023-02-12T08:56:51.458Z,98071.91
2023-02-12T08:59:24.787Z,98066.56
2023-02-12T09:02:00.581Z,98064.97
2023-02-12T09:04:34.311Z,98057.53
2023-02-12T09:07:10.346Z,98064.91
2023-02-12T09:09:43.681Z,98054.75
2023-02-12T09:12:16.547Z,98052.59
2023-02-12T09:14:49.793Z,98051.97
2023-02-12T09:17:27.473Z,98053.22
2023-02-12T09:20:01.538Z,98047.31
2023-02-12T09:22:38.117Z,98043.00
2023-02-12T09:25:11.193Z,98050.31
2023-02-12T09:27:44.052Z,98037.22
2023-02-12T09:30:17.745Z,98047.22
2023-02-12T09:32:52.030Z,98045.50
2023-02-12T09:35:24.979Z,98041.59
2023-02-12T09:37:57.918Z,98051.56
2023-02-12T09:40:37.187Z,98042.34
2023-02-12T09:43:19.127Z,98052.31
2023-02-12T09:45:56.957Z,98033.50
2023-02-12T09:48:43.257Z,98037.03
2023-02-12T09:51:16.417Z,98038.16
2023-02-12T09:53:51.251Z,98031.28
2023-02-12T09:56:25.909Z,98043.56
2023-02-12T09:59:02.979Z,98041.47
2023-02-12T10:01:36.650Z,98040.19
2023-02-12T10:04:11.098Z,98035.97
2023-02-12T10:06:55.160Z,98032.00
2023-02-12T10:09:43.291Z,98028.03
2023-02-12T10:12:26.242Z,98020.59
2023-02-12T10:15:18.169Z,98029.66
2023-02-12T10:18:02.809Z,98029.41
2023-02-12T10:20:53.250Z,98023.31
2023-02-12T10:23:52.363Z,98019.88
2023-02-12T10:26:29.682Z,98026.00
2023-02-12T10:29:12.274Z,98027.31
2023-02-12T10:31:49.841Z,98022.81
2023-02-12T10:34:26.130Z,98028.16
2023-02-12T10:37:05.725Z,98021.78
2023-02-12T10:39:44.098Z,98013.00
2023-02-12T10:42:20.687Z,98005.81
2023-02-12T10:44:53.721Z,98004.47
2023-02-12T10:47:27.286Z,98001.53
2023-02-12T10:50:02.747Z,98010.06
2023-02-12T10:52:46.119Z,97999.91
2023-02-12T10:55:27.881Z,97993.00
2023-02-12T10:58:02.676Z,97998.03
2023-02-12T11:00:37.232Z,97999.13
2023-02-12T11:03:22.193Z,97984.97
2023-02-12T11:05:55.405Z,97986.31
2023-02-12T11:08:36.577Z,97988.41
2023-02-12T11:11:12.875Z,97992.41
2023-02-12T11:13:49.985Z,97973.19
2023-02-12T11:16:31.746Z,97974.00
2023-02-12T11:19:05.858Z,97963.09
2023-02-12T11:21:38.844Z,97968.13
2023-02-12T11:24:31.919Z,97962.47
2023-02-12T11:27:30.961Z,97967.28
2023-02-12T11:30:15.855Z,97968.31
2023-02-12T11:32:51.713Z,97961.91
2023-02-12T11:35:28.527Z,97959.25
2023-02-12T11:38:02.691Z,97952.53
2023-02-12T11:40:37.467Z,97958.13
2023-02-12T11:43:19.634Z,97945.84
2023-02-12T11:45:56.412Z,97952.22
2023-02-12T11:48:34.799Z,97946.34
2023-02-12T11:51:10.715Z,97943.13
2023-02-12T11:53:48.940Z,97939.91
2023-02-12T11:56:23.543Z,97944.66
2023-02-12T11:59:13.693Z,97935.59
2023-02-12T12:01:47.821Z,97931.06
2023-02-12T12:04:24.207Z,97933.66
2023-02-12T12:07:01.814Z,97935.78
2023-02-12T12:09:42.569Z,97942.69
2023-02-12T12:12:21.551Z,97939.97
2023-02-12T12:15:16.814Z,97929.81
2023-02-12T12:18:15.246Z,97932.47
2023-02-12T12:20:52.758Z,97914.81
2023-02-12T12:23:33.196Z,97922.78
2023-02-12T12:26:09.596Z,97912.34
2023-02-12T12:28:49.009Z,97913.41
2023-02-12T12:31:26.846Z,97903.75
2023-02-12T12:34:07.260Z,97910.41
2023-02-12T12:37:07.479Z,97913.81
2023-02-12T12:39:53.487Z,97908.72
2023-02-12T12:43:03.038Z,97912.72
2023-02-12T12:46:13.704Z,97897.44
2023-02-12T12:49:12.448Z,97880.28
2023-02-12T12:52:03.927Z,97885.59
2023-02-12T12:54:53.416Z,97870.03
2023-02-12T12:57:42.679Z,97878.81
2023-02-12T13:00:29.593Z,97875.06
2023-02-12T13:03:39.850Z,97867.56
2023-02-12T13:06:47.748Z,97867.78
2023-02-12T13:09:50.820Z,97869.38
2023-02-12T13:12:52.885Z,97878.72
2023-02-12T13:15:34.862Z,97876.25
2023-02-12T13:18:28.952Z,97870.63
2023-02-12T13:21:11.627Z,97869.28
2023-02-12T13:23:51.055Z,97874.34
2023-02-12T13:26:31.484Z,97874.53
2023-02-12T13:29:11.190Z,97866.19
2023-02-12T13:31:50.430Z,97867.50
2023-02-12T13:34:26.606Z,97869.59
2023-02-12T13:37:03.374Z,97859.91
2023-02-12T13:39:40.081Z,97867.09
2023-02-12T13:42:28.957Z,97870.47
2023-02-12T13:45:18.317Z,97876.84
2023-02-12T13:48:00.937Z,97874.09
2023-02-12T13:50:42.960Z,97869.47
2023-02-12T13:53:24.577Z,97875.06
2023-02-12T13:56:08.070Z,97869.94
2023-02-12T13:58:49.389Z,97883.78
2023-02-12T14:01:46.646Z,97877.88
2023-02-12T14:04:32.601Z,97869.56
2023-02-12T14:07:10.319Z,97864.44
2023-02-12T14:09:47.507Z,97868.69
2023-02-12T14:12:33.505Z,97869.72
2023-02-12T14:15:09.157Z,97854.47
2023-02-12T14:17:53.803Z,97863.78
2023-02-12T14:20:29.612Z,97853.38
2023-02-12T14:23:32.025Z,97864.28
2023-02-12T14:26:12.295Z,97857.84
2023-02-12T14:28:52.788Z,97862.13
2023-02-12T14:31:34.978Z,97861.84
2023-02-12T14:34:48.579Z,97860.47
2023-02-12T14:37:38.162Z,97855.59
2023-02-12T14:40:42.739Z,97856.91
2023-02-12T14:43:29.487Z,97856.34
2023-02-12T14:46:35.785Z,97851.97
2023-02-12T14:49:21.943Z,97848.47
2023-02-12T14:52:01.530Z,97844.97
2023-02-12T14:54:38.011Z,97843.94
2023-02-12T14:57:21.553Z,97846.00
2023-02-12T14:59:59.183Z,97849.47
2023-02-12T15:02:36.758Z,97843.53
2023-02-12T15:05:18.322Z,97849.88
2023-02-12T15:07:55.720Z,97848.81
2023-02-12T15:10:31.974Z,97859.22
2023-02-12T15:13:16.898Z,97841.78
2023-02-12T15:15:56.930Z,97845.44
2023-02-12T15:18:37.001Z,97849.22
2023-02-12T15:21:20.641Z,97847.03
2023-02-12T15:24:04.556Z,97845.97
2023-02-12T15:26:42.029Z,97844.88
2023-02-12T15:29:22.688Z,97848.63
2023-02-12T15:31:59.626Z,97840.63
2023-02-12T15:34:35.496Z,97850.81
2023-02-12T15:37:09.616Z,97839.03
2023-02-12T15:39:45.556Z,97837.75
2023-02-12T15:42:27.710Z,97836.16
2023-02-12T15:45:17.363Z,97839.13
2023-02-12T15:48:01.918Z,97843.97
2023-02-12T15:50:36.537Z,97834.16
2023-02-12T15:53:10.127Z,97839.50
2023-02-12T15:55:46.455Z,97835.50
2023-02-12T15:58:23.884Z,97849.19
2023-02-12T16:01:02.444Z,97838.25
2023-02-12T16:03:39.377Z,97838.84
2023-02-12T16:06:16.691Z,97842.59
2023-02-12T16:08:51.702Z,97845.84
2023-02-12T16:11:27.327Z,97844.03
2023-02-12T16:14:02.788Z,97842.75
2023-02-12T16:16:45.398Z,97840.34
2023-02-12T16:19:23.266Z,97849.25
2023-02-12T16:22:01.991Z,97846.38
2023-02-12T16:24:38.033Z,97850.19
2023-02-12T16:27:20.212Z,97857.19
2023-02-12T16:29:55.630Z,97851.13
2023-02-12T16:32:32.236Z,97856.25
2023-02-12T16:35:24.555Z,97865.97
2023-02-12T16:38:03.665Z,97868.19
2023-02-12T16:40:37.823Z,97869.91
2023-02-12T16:43:26.364Z,97871.84
2023-02-12T16:46:06.791Z,97874.94
2023-02-12T16:48:41.653Z,97875.84
2023-02-12T16:51:25.019Z,97888.78
2023-02-12T16:53:59.078Z,97886.50
2023-02-12T16:56:34.405Z,97892.72
2023-02-12T16:59:07.451Z,97897.09
2023-02-12T17:01:40.494Z,97904.13
2023-02-12T17:04:16.538Z,97893.25
2023-02-12T17:06:50.788Z,97897.41
2023-02-12T17:09:23.728Z,97899.03
2023-02-12T17:11:56.770Z,97901.00
2023-02-12T17:14:29.973Z,97904.81
2023-02-12T17:17:02.954Z,97904.09
2023-02-12T17:19:36.027Z,97919.38
2023-02-12T17:22:19.593Z,97905.28
2023-02-12T17:24:53.352Z,97909.34
2023-02-12T17:27:26.338Z,97905.19
2023-02-12T17:29:59.294Z,97920.94
2023-02-12T17:32:32.142Z,97912.19
2023-02-12T17:35:06.659Z,97910.88
2023-02-12T17:37:40.956Z,97915.19
2023-02-12T17:40:14.154Z,97917.63
2023-02-12T17:42:47.064Z,97913.13
2023-02-12T17:45:21.113Z,97923.81
2023-02-12T17:47:54.910Z,97927.81
2023-02-12T17:50:28.354Z,97924.91
2023-02-12T17:53:02.656Z,97923.03
2023-02-12T17:55:38.786Z,97925.97
2023-02-12T17:58:11.676Z,97923.31
2023-02-12T18:00:44.959Z,97925.97
2023-02-12T18:03:17.824Z,97934.72
2023-02-12T18:05:50.786Z,97932.06
2023-02-12T18:08:25.186Z,97934.44
2023-02-12T18:10:58.484Z,97933.91
2023-02-12T18:13:31.538Z,97927.75
2023-02-12T18:16:07.569Z,97927.22
2023-02-12T18:18:41.363Z,97931.69
2023-02-12T18:21:15.924Z,97933.25
2023-02-12T18:23:50.327Z,97922.34
2023-02-12T18:26:24.188Z,97931.84
2023-02-12T18:28:58.410Z,97937.13
2023-02-12T18:31:31.649Z,97936.56
2023-02-12T18:34:05.736Z,97939.47
2023-02-12T18:36:38.721Z,97942.84
2023-02-12T18:39:13.004Z,97948.94
2023-02-12T18:41:46.594Z,97938.78
2023-02-12T18:44:19.711Z,97945.38
2023-02-12T18:46:52.902Z,97947.19
2023-02-12T18:49:25.866Z,97943.97
2023-02-12T18:51:59.015Z,97941.00
2023-02-12T18:54:33.644Z,97946.00
2023-02-12T18:57:06.673Z,97940.13
2023-02-12T18:59:39.647Z,97940.88
2023-02-12T19:02:13.764Z,97934.16
2023-02-12T19:04:46.835Z,97939.44
2023-02-12T19:07:19.806Z,97935.97
2023-02-12T19:09:54.209Z,97939.91
2023-02-12T19:12:27.224Z,97937.69
2023-02-12T19:15:00.129Z,97940.28
2023-02-12T19:17:34.704Z,97949.31
2023-02-12T19:20:09.453Z,97945.00
2023-02-12T19:22:42.694Z,97943.91
2023-02-12T19:25:17.356Z,97935.88
2023-02-12T19:27:50.239Z,97936.66
2023-02-12T19:30:23.277Z,97934.72
2023-02-12T19:32:56.589Z,97935.25
2023-02-12T19:35:29.487Z,97929.09
2023-02-12T19:38:03.101Z,97929.59
2023-02-12T19:40:37.452Z,97929.03
2023-02-12T19:43:10.377Z,97931.66
2023-02-12T19:45:43.267Z,97940.88
2023-02-12T19:48:16.234Z,97934.47
2023-02-12T19:50:49.119Z,97932.59
2023-02-12T19:53:22.092Z,97937.56
2023-02-12T19:55:56.502Z,97947.63
2023-02-12T19:58:30.325Z,97958.94
2023-02-12T20:01:09.027Z,97948.81
2023-02-12T20:03:42.346Z,97954.88
2023-02-12T20:06:17.523Z,97952.94
2023-02-12T20:08:51.132Z,97947.38
2023-02-12T20:11:27.205Z,97943.59
2023-02-12T20:14:01.829Z,97939.06
2023-02-12T20:16:38.296Z,97934.00
2023-02-12T20:19:13.915Z,97941.63
2023-02-12T20:21:48.827Z,97951.09
2023-02-12T20:24:22.612Z,97944.69
2023-02-12T20:26:58.124Z,97946.53
2023-02-12T20:29:31.424Z,97945.44
2023-02-12T20:32:04.398Z,97944.06
2023-02-12T20:34:50.150Z,97952.00
2023-02-12T20:37:23.965Z,97949.59
2023-02-12T20:39:56.903Z,97955.16
2023-02-12T20:42:31.558Z,97954.66
2023-02-12T20:45:05.223Z,97958.09
2023-02-12T20:47:38.327Z,97954.97
2023-02-12T20:50:11.779Z,97961.38
2023-02-12T20:52:45.180Z,97958.56
2023-02-12T20:55:18.170Z,97960.47
2023-02-12T20:57:52.566Z,97964.53
2023-02-12T21:00:25.611Z,97968.84
2023-02-12T21:03:00.977Z,97959.69
2023-02-12T21:05:34.244Z,97968.00
2023-02-12T21:08:07.440Z,97959.88
2023-02-12T21:10:40.322Z,97963.69
2023-02-12T21:13:14.556Z,97968.53
2023-02-12T21:15:47.697Z,97966.81
2023-02-12T21:18:24.249Z,97963.72
2023-02-12T21:21:01.796Z,97969.41
2023-02-12T21:23:35.367Z,97972.63
2023-02-12T21:26:10.500Z,97973.25
2023-02-12T21:28:45.480Z,97978.66
2023-02-12T21:31:22.170Z,97981.91
2023-02-12T21:33:56.541Z,97976.13
2023-02-12T21:36:31.950Z,97982.84
2023-02-12T21:39:06.507Z,97973.63
2023-02-12T21:41:41.001Z,97981.91
2023-02-12T21:44:17.174Z,97978.78
2023-02-12T21:46:50.702Z,97982.03
2023-02-12T21:49:28.284Z,97977.53
2023-02-12T21:52:03.613Z,97970.94
2023-02-12T21:54:36.797Z,97972.34
2023-02-12T21:57:09.690Z,97979.28
2023-02-12T21:59:43.991Z,97974.53
2023-02-12T22:02:16.957Z,97971.63
2023-02-12T22:04:50.347Z,97976.19
2023-02-12T22:07:23.286Z,97974.34
2023-02-12T22:09:56.887Z,97980.22
2023-02-12T22:12:32.502Z,97979.72
2023-02-12T22:15:07.778Z,97980.28
2023-02-12T22:17:40.770Z,97983.22
2023-02-12T22:20:13.897Z,97972.06
2023-02-12T22:22:46.833Z,97975.81
2023-02-12T22:25:19.864Z,97982.72
2023-02-12T22:27:52.835Z,97984.06
2023-02-12T22:30:27.178Z,97982.22
2023-02-12T22:33:00.234Z,97976.41
2023-02-12T22:35:33.604Z,97976.66
2023-02-12T22:38:06.591Z,97988.91
2023-02-12T22:40:39.454Z,97983.06
2023-02-12T22:43:12.791Z,97992.38
2023-02-12T22:45:47.056Z,97989.75
2023-02-12T22:48:19.952Z,97992.91
2023-02-12T22:50:53.346Z,97991.34
2023-02-12T22:53:27.114Z,97999.59
2023-02-12T22:56:04.011Z,98001.47
2023-02-12T22:58:38.785Z,97994.03
2023-02-12T23:01:14.515Z,97995.63
2023-02-12T23:03:47.622Z,97998.81
2023-02-12T23:06:23.044Z,98005.22
2023-02-12T23:08:59.124Z,98003.59
2023-02-12T23:11:33.830Z,97998.84
2023-02-12T23:14:07.281Z,98000.44
2023-02-12T23:16:41.837Z,98008.41
2023-02-12T23:19:14.992Z,98009.75
2023-02-12T23:21:47.859Z,98006.28
2023-02-12T23:24:20.812Z,98011.09
2023-02-12T23:26:54.155Z,98003.13
2023-02-12T23:29:27.218Z,98009.78
2023-02-12T23:32:01.539Z,98000.69
2023-02-12T23:34:34.556Z,98006.81
2023-02-12T23:37:07.503Z,98012.69
2023-02-12T23:39:40.384Z,98008.97
2023-02-12T23:42:13.268Z,98012.16
2023-02-12T23:44:46.404Z,98009.25
2023-02-12T23:47:20.637Z,98009.50
2023-02-12T23:49:53.603Z,98009.50
2023-02-12T23:52:26.483Z,98014.03
2023-02-12T23:54:59.426Z,98012.19
2023-02-12T23:57:32.273Z,98015.38
